Time;durP1;ratioP1;P1;durP2;ratioP2;P2;SDS_P1;SDS_P2;PMS_P1;PMS_P2;Temp;Humidity;BMP_temperature;BMP_pressure;BME280_temperature;BME280_humidity;BME280_pressure;Samples;Min_cycle;Max_cycle;Signal;HPM_P1;HPM_P2
2022/11/12 00:00:49;;;;;;;35.08;20.52;;;;;;;12.74;100.00;102982.22;4987255;28;20081;-52
2022/11/12 00:03:33;;;;;;;31.35;17.83;;;;;;;12.52;100.00;102983.53;4985745;28;20113;-56
2022/11/12 00:06:17;;;;;;;36.17;20.02;;;;;;;12.49;100.00;102983.84;4985970;28;20073;-54
2022/11/12 00:09:01;;;;;;;32.47;17.45;;;;;;;12.55;100.00;102983.22;4987488;28;20093;-54
2022/11/12 00:11:45;;;;;;;40.25;19.45;;;;;;;12.21;100.00;102977.75;4985475;28;20069;-48
2022/11/12 00:14:29;;;;;;;38.63;19.27;;;;;;;12.13;100.00;102983.91;4986686;28;20068;-52
2022/11/12 00:17:13;;;;;;;36.65;19.45;;;;;;;12.46;100.00;102985.03;4987278;28;20053;-51
2022/11/12 00:19:57;;;;;;;34.80;18.92;;;;;;;12.64;100.00;102986.00;4988614;28;20057;-52
2022/11/12 00:22:41;;;;;;;38.33;19.02;;;;;;;12.63;100.00;102982.44;4984703;28;20050;-53
2022/11/12 00:25:27;;;;;;;35.28;18.58;;;;;;;12.55;100.00;102977.03;4988723;28;20045;-53
2022/11/12 00:28:11;;;;;;;33.85;19.50;;;;;;;12.58;100.00;102985.63;4982419;28;20082;-49
2022/11/12 00:30:56;;;;;;;37.10;19.85;;;;;;;12.50;100.00;102982.03;4983599;28;20054;-54
2022/11/12 00:33:42;;;;;;;34.42;19.15;;;;;;;12.38;100.00;102989.47;4988844;28;20073;-50
2022/11/12 00:36:26;;;;;;;35.00;19.10;;;;;;;12.45;100.00;102987.84;4985342;28;20046;-52
2022/11/12 00:39:10;;;;;;;37.30;18.92;;;;;;;12.60;100.00;102993.50;4987620;28;20104;-54
2022/11/12 00:41:54;;;;;;;30.02;18.30;;;;;;;12.55;100.00;102987.75;4987176;28;20583;-54
2022/11/12 00:44:38;;;;;;;29.50;17.23;;;;;;;12.52;100.00;102990.75;4988037;28;20041;-54
2022/11/12 00:47:22;;;;;;;33.15;19.98;;;;;;;12.47;100.00;102985.84;4989251;28;20069;-49
2022/11/12 00:50:07;;;;;;;35.67;20.40;;;;;;;12.28;100.00;102985.03;4987788;28;20081;-51
2022/11/12 00:52:52;;;;;;;33.00;19.08;;;;;;;12.33;100.00;102990.75;4987426;28;20069;-49
2022/11/12 00:55:37;;;;;;;31.92;19.45;;;;;;;12.75;100.00;102989.25;4986241;28;20505;-51
2022/11/12 00:58:21;;;;;;;34.88;19.70;;;;;;;12.24;100.00;102985.50;4987938;28;20061;-49
2022/11/12 01:01:09;;;;;;;36.45;19.25;;;;;;;12.17;100.00;102996.00;4988526;28;20058;-52
2022/11/12 01:03:56;;;;;;;28.42;19.23;;;;;;;12.07;100.00;102988.03;4989479;28;20105;-50
2022/11/12 01:06:41;;;;;;;33.08;19.05;;;;;;;11.99;100.00;102987.88;4991580;28;20060;-53
2022/11/12 01:09:25;;;;;;;30.20;18.70;;;;;;;11.84;100.00;102992.94;4989160;28;20056;-52
2022/11/12 01:12:09;;;;;;;31.52;18.48;;;;;;;12.09;100.00;102983.34;4991702;28;20053;-49
2022/11/12 01:14:54;;;;;;;34.85;18.95;;;;;;;12.07;100.00;102984.47;4989121;28;20050;-52
2022/11/12 01:17:38;;;;;;;34.00;18.98;;;;;;;12.08;100.00;102984.34;4990390;28;20068;-53
2022/11/12 01:20:22;;;;;;;39.55;19.73;;;;;;;12.12;100.00;102982.22;4988238;28;20069;-48
2022/11/12 01:23:06;;;;;;;33.03;19.33;;;;;;;12.04;100.00;102988.34;4989695;28;20061;-48
2022/11/12 01:25:50;;;;;;;34.33;19.35;;;;;;;12.08;100.00;102988.84;4987376;28;20102;-54
2022/11/12 01:28:35;;;;;;;34.85;20.67;;;;;;;11.77;100.00;102985.50;4989537;28;20099;-50
2022/11/12 01:31:21;;;;;;;33.83;19.35;;;;;;;11.95;100.00;102994.56;4989354;28;20076;-48
2022/11/12 01:34:08;;;;;;;31.77;18.85;;;;;;;11.94;100.00;103001.78;4989436;28;20054;-50
2022/11/12 01:36:52;;;;;;;34.97;19.60;;;;;;;12.11;100.00;102988.53;4984990;28;20042;-48
2022/11/12 01:39:37;;;;;;;36.22;18.70;;;;;;;11.97;100.00;102988.06;4989472;28;20061;-52
2022/11/12 01:42:24;;;;;;;38.28;21.00;;;;;;;12.00;100.00;102976.19;4987172;28;20043;-49
2022/11/12 01:45:14;;;;;;;37.50;19.17;;;;;;;12.09;100.00;102961.03;4986713;28;20054;-48
2022/11/12 01:47:59;;;;;;;37.05;19.75;;;;;;;11.31;100.00;102958.69;4988314;28;20109;-52
2022/11/12 01:50:44;;;;;;;36.83;20.50;;;;;;;11.86;100.00;102967.66;4988840;28;20080;-49
2022/11/12 01:53:32;;;;;;;32.75;19.80;;;;;;;11.68;100.00;102956.94;4989883;28;20058;-50
2022/11/12 01:56:19;;;;;;;33.35;19.35;;;;;;;11.54;100.00;102962.78;4988086;28;20054;-51
2022/11/12 01:59:10;;;;;;;37.67;20.92;;;;;;;11.71;100.00;102961.13;4987567;28;20062;-50
2022/11/12 02:01:55;;;;;;;33.50;19.98;;;;;;;11.89;100.00;102970.03;4987620;28;20066;-53
2022/11/12 02:04:41;;;;;;;40.38;20.92;;;;;;;12.06;100.00;102967.56;4989888;28;20592;-50
2022/11/12 02:07:25;;;;;;;41.08;20.75;;;;;;;11.91;100.00;102967.22;4986931;28;20069;-51
2022/11/12 02:10:09;;;;;;;39.40;21.17;;;;;;;11.94;100.00;102969.59;4987297;28;20045;-47
2022/11/12 02:15:57;;;;;;;39.05;21.00;;;;;;;11.88;100.00;102963.00;4988127;28;20094;-49
2022/11/12 02:18:41;;;;;;;37.38;21.80;;;;;;;11.78;100.00;102954.19;4989576;28;20049;-49
2022/11/12 02:21:26;;;;;;;40.63;21.92;;;;;;;11.85;100.00;102952.59;4989259;28;20049;-51
2022/11/12 02:24:11;;;;;;;39.83;21.70;;;;;;;11.64;100.00;102952.00;4987126;28;20118;-49
2022/11/12 02:26:55;;;;;;;40.55;22.70;;;;;;;11.55;100.00;102951.94;4988495;28;20470;-52
2022/11/12 02:29:45;;;;;;;39.33;22.42;;;;;;;11.38;100.00;102952.72;4991159;28;20060;-51
2022/11/12 02:32:29;;;;;;;45.67;23.08;;;;;;;11.51;100.00;102947.84;4991634;28;20244;-49
2022/11/12 02:35:14;;;;;;;39.20;22.23;;;;;;;11.38;100.00;102940.16;4991766;28;20126;-53
2022/11/12 02:37:58;;;;;;;40.38;24.05;;;;;;;11.54;100.00;102952.06;4988792;28;20041;-51
2022/11/12 02:40:42;;;;;;;41.92;23.10;;;;;;;11.36;100.00;102952.03;4988068;28;20057;-50
2022/11/12 02:43:26;;;;;;;36.15;21.75;;;;;;;11.69;100.00;102955.09;4986782;28;20085;-51
2022/11/12 02:46:11;;;;;;;41.83;23.00;;;;;;;11.70;100.00;102946.91;4988891;28;20053;-51
2022/11/12 02:48:56;;;;;;;38.70;22.75;;;;;;;11.81;100.00;102956.56;4989259;28;20109;-52
2022/11/12 02:51:40;;;;;;;40.90;21.70;;;;;;;11.69;100.00;102960.44;4988503;28;20081;-52
2022/11/12 02:54:24;;;;;;;36.42;21.92;;;;;;;11.68;100.00;102966.78;4989790;28;20115;-51
2022/11/12 02:57:08;;;;;;;40.20;21.70;;;;;;;11.67;100.00;102962.44;4989794;28;20047;-50
2022/11/12 02:59:52;;;;;;;36.80;22.00;;;;;;;11.18;100.00;102947.47;4990154;28;20061;-50
2022/11/12 03:02:57;;;;;;;40.30;23.00;;;;;;;11.07;100.00;102958.34;4988905;28;20134;-55
2022/11/12 03:05:42;;;;;;;40.20;23.00;;;;;;;10.88;100.00;102954.75;4988595;28;20053;-52
2022/11/12 03:08:27;;;;;;;45.97;22.35;;;;;;;10.96;100.00;102949.50;4987411;28;20049;-52
2022/11/12 03:11:14;;;;;;;46.03;24.33;;;;;;;11.33;100.00;102950.47;4987687;28;20125;-51
2022/11/12 03:13:58;;;;;;;39.25;21.52;;;;;;;11.31;100.00;102941.75;4987857;28;20042;-52
2022/11/12 03:16:42;;;;;;;39.13;22.13;;;;;;;11.23;100.00;102929.09;4987281;28;20045;-51
2022/11/12 03:19:26;;;;;;;39.30;21.98;;;;;;;11.06;100.00;102938.75;4990402;28;20061;-53
2022/11/12 03:22:10;;;;;;;40.13;23.00;;;;;;;11.07;100.00;102940.44;4989398;28;20077;-52
2022/11/12 03:24:54;;;;;;;34.22;21.40;;;;;;;10.99;100.00;102933.16;4991416;28;20069;-51
2022/11/12 03:27:39;;;;;;;37.03;20.92;;;;;;;11.26;100.00;102928.81;4988885;28;20050;-53
2022/11/12 03:30:25;;;;;;;39.63;22.38;;;;;;;11.39;100.00;102930.31;4986565;28;20050;-52
2022/11/12 03:33:13;;;;;;;43.25;22.83;;;;;;;11.42;100.00;102940.72;4990210;28;20045;-54
2022/11/12 03:35:57;;;;;;;45.25;22.70;;;;;;;11.36;100.00;102939.47;4986573;28;20060;-53
2022/11/12 03:38:41;;;;;;;38.30;22.40;;;;;;;11.23;100.00;102933.63;4988658;28;20050;-54
2022/11/12 03:41:25;;;;;;;41.25;22.58;;;;;;;11.22;100.00;102929.28;4989640;28;20077;-48
2022/11/12 03:44:09;;;;;;;41.70;21.88;;;;;;;11.11;100.00;102931.13;4988295;28;20057;-52
2022/11/12 03:46:53;;;;;;;41.70;22.95;;;;;;;11.06;100.00;102928.06;4988039;28;20054;-51
2022/11/12 03:49:37;;;;;;;39.40;22.10;;;;;;;11.10;100.00;102928.63;4989665;28;20061;-54
2022/11/12 03:52:21;;;;;;;35.50;21.30;;;;;;;10.87;100.00;102932.47;4989799;28;20057;-51
2022/11/12 03:55:06;;;;;;;47.70;23.55;;;;;;;10.85;100.00;102930.97;4991303;28;20049;-50
2022/11/12 03:57:52;;;;;;;40.63;23.92;;;;;;;10.90;100.00;102931.38;4993323;28;20068;-51
2022/11/12 04:00:36;;;;;;;40.72;21.90;;;;;;;11.25;100.00;102937.00;4989961;28;20049;-52
2022/11/12 04:03:20;;;;;;;47.90;25.17;;;;;;;11.29;100.00;102933.84;4993056;28;20058;-52
2022/11/12 04:09:08;;;;;;;37.35;24.70;;;;;;;11.26;100.00;102939.50;4985112;28;20069;-52
2022/11/12 04:11:52;;;;;;;45.10;23.38;;;;;;;11.40;100.00;102940.03;4988643;28;20042;-51
2022/11/12 04:14:36;;;;;;;37.65;21.85;;;;;;;11.28;100.00;102942.88;4992757;28;20045;-52
2022/11/12 04:23:28;;;;;;;40.05;20.63;;;;;;;11.02;100.00;102945.41;4990560;28;20038;-49
2022/11/12 04:26:22;;;;;;;34.17;19.67;;;;;;;11.08;100.00;102949.34;4993722;28;20114;-50
2022/11/12 04:32:10;;;;;;;35.15;19.02;;;;;;;11.19;100.00;102949.16;4990990;28;20135;-48
2022/11/12 04:34:55;;;;;;;38.25;19.95;;;;;;;10.88;100.00;102950.22;4991852;28;20101;-52
2022/11/12 04:37:45;;;;;;;36.38;19.20;;;;;;;10.82;100.00;102944.63;4989802;28;20038;-52
2022/11/12 04:46:37;;;;;;;32.30;17.65;;;;;;;11.17;100.00;102922.50;4987880;28;20134;-53
2022/11/12 04:49:22;;;;;;;36.28;18.15;;;;;;;11.07;100.00;102921.72;4988547;28;20065;-52
2022/11/12 04:52:07;;;;;;;29.90;16.98;;;;;;;11.10;100.00;102917.91;4983749;28;20115;-50
2022/11/12 04:54:53;;;;;;;32.28;16.73;;;;;;;11.21;100.00;102920.38;4982385;28;20074;-49
2022/11/12 04:57:37;;;;;;;33.15;17.38;;;;;;;10.69;100.00;102911.00;4985932;28;20100;-52
2022/11/12 05:00:22;;;;;;;28.25;17.23;;;;;;;10.86;100.00;102916.59;4986313;28;20099;-52
2022/11/12 05:03:06;;;;;;;30.30;16.75;;;;;;;10.42;100.00;102917.97;4987403;28;20060;-50
2022/11/12 05:05:51;;;;;;;26.13;15.68;;;;;;;10.53;100.00;102916.09;4990720;28;20100;-51
2022/11/12 05:08:35;;;;;;;34.70;17.42;;;;;;;10.88;100.00;102910.09;4989353;28;20046;-49
2022/11/12 05:11:20;;;;;;;27.50;15.85;;;;;;;10.66;100.00;102905.94;4990184;28;20065;-51
2022/11/12 05:14:04;;;;;;;36.92;15.55;;;;;;;10.40;100.00;102906.56;4992408;28;20061;-50
2022/11/12 05:16:49;;;;;;;28.98;15.45;;;;;;;11.21;100.00;102909.66;4987839;28;20038;-48
2022/11/12 05:19:34;;;;;;;30.65;16.38;;;;;;;10.39;100.00;102899.50;4987971;28;20037;-53
2022/11/12 05:22:18;;;;;;;34.58;16.58;;;;;;;10.54;100.00;102896.38;4989718;28;20045;-54
2022/11/12 05:25:03;;;;;;;28.08;16.10;;;;;;;10.99;100.00;102898.34;4991936;28;20042;-51
2022/11/12 05:27:47;;;;;;;31.40;15.38;;;;;;;10.80;100.00;102893.06;4988070;28;20069;-54
2022/11/12 05:30:31;;;;;;;30.45;16.17;;;;;;;10.84;100.00;102891.78;4995146;28;20053;-51
2022/11/12 05:33:16;;;;;;;33.35;16.70;;;;;;;10.72;100.00;102894.66;4990186;28;20049;-52
2022/11/12 05:36:01;;;;;;;32.55;16.88;;;;;;;10.80;100.00;102885.88;4987547;28;20053;-53
2022/11/12 05:38:45;;;;;;;30.33;16.10;;;;;;;10.94;100.00;102889.06;4983247;28;20056;-51
2022/11/12 05:41:30;;;;;;;28.88;15.88;;;;;;;11.33;100.00;102897.78;4985930;28;20049;-52
2022/11/12 05:44:15;;;;;;;27.60;15.82;;;;;;;11.32;100.00;102898.75;4986889;28;20070;-54
2022/11/12 05:46:59;;;;;;;25.98;15.35;;;;;;;10.67;100.00;102891.56;4988660;28;20107;-52
2022/11/12 05:49:43;;;;;;;28.30;14.98;;;;;;;10.54;100.00;102901.72;4993135;28;20061;-51
2022/11/12 05:52:27;;;;;;;26.10;15.60;;;;;;;10.68;100.00;102903.97;4992421;28;20058;-51
2022/11/12 05:55:11;;;;;;;29.60;15.77;;;;;;;10.69;100.00;102902.13;4991437;28;20038;-50
2022/11/12 05:57:55;;;;;;;27.17;15.00;;;;;;;11.04;100.00;102903.25;4989428;28;20061;-50
2022/11/12 06:00:40;;;;;;;26.00;14.10;;;;;;;10.92;100.00;102904.44;4987331;28;20053;-51
2022/11/12 06:03:25;;;;;;;27.55;14.88;;;;;;;10.83;100.00;102900.78;4989003;28;20049;-52
2022/11/12 06:06:10;;;;;;;25.98;15.38;;;;;;;10.72;100.00;102905.34;4983086;28;20050;-50
2022/11/12 06:08:54;;;;;;;24.85;14.40;;;;;;;10.98;100.00;102902.00;4988687;28;20069;-51
2022/11/12 06:11:39;;;;;;;24.00;12.95;;;;;;;11.12;100.00;102905.22;4990039;28;20081;-53
2022/11/12 06:14:23;;;;;;;25.63;14.80;;;;;;;11.29;100.00;102911.59;4988948;28;20053;-51
2022/11/12 06:17:07;;;;;;;34.58;14.25;;;;;;;10.78;100.00;102909.28;4988038;28;20090;-50
2022/11/12 06:19:51;;;;;;;24.27;13.30;;;;;;;11.13;100.00;102909.56;4985760;28;20111;-52
2022/11/12 06:22:36;;;;;;;29.17;14.35;;;;;;;10.46;100.00;102916.69;4989482;28;20065;-53
2022/11/12 06:25:20;;;;;;;25.30;13.70;;;;;;;10.31;100.00;102912.72;4992279;28;20058;-55
2022/11/12 06:28:04;;;;;;;28.65;15.25;;;;;;;11.27;100.00;102916.25;4990662;28;20053;-51
2022/11/12 06:30:48;;;;;;;25.20;14.15;;;;;;;10.66;100.00;102905.94;4984286;28;20049;-51
2022/11/12 06:33:33;;;;;;;22.63;14.07;;;;;;;10.71;100.00;102903.66;4989282;28;20053;-54
2022/11/12 06:36:19;;;;;;;29.33;15.95;;;;;;;10.68;100.00;102911.13;4983949;28;20152;-53
2022/11/12 06:39:03;;;;;;;25.58;13.40;;;;;;;10.85;100.00;102910.38;4985780;28;20046;-51
2022/11/12 06:41:48;;;;;;;32.35;14.40;;;;;;;11.10;100.00;102908.03;4991596;28;20098;-50
2022/11/12 06:44:33;;;;;;;31.27;15.32;;;;;;;11.03;100.00;102906.94;4986236;28;20050;-49
2022/11/12 06:47:18;;;;;;;28.75;14.02;;;;;;;10.90;100.00;102912.63;4988888;28;20070;-49
2022/11/12 06:50:02;;;;;;;24.92;14.02;;;;;;;13.09;100.00;102908.88;4988359;28;20061;-53
2022/11/12 06:52:46;;;;;;;24.20;14.55;;;;;;;11.32;100.00;102911.28;4986344;28;20069;-50
2022/11/12 06:55:32;;;;;;;26.33;14.00;;;;;;;11.39;100.00;102919.59;4986324;28;20615;-51
2022/11/12 06:58:16;;;;;;;27.77;14.48;;;;;;;11.47;100.00;102925.88;4990358;28;20417;-48
2022/11/12 07:01:18;;;;;;;26.35;14.73;;;;;;;12.13;100.00;102931.06;4986602;28;20049;-48
2022/11/12 07:04:03;;;;;;;25.60;13.93;;;;;;;11.46;100.00;102934.06;4986845;28;20053;-48
2022/11/12 07:06:47;;;;;;;26.33;14.40;;;;;;;11.35;100.00;102936.97;4989074;28;20061;-51
2022/11/12 07:09:31;;;;;;;22.40;12.40;;;;;;;11.27;100.00;102937.69;4985817;28;20072;-50
2022/11/12 07:12:15;;;;;;;25.77;13.40;;;;;;;11.05;100.00;102939.75;4984811;28;20069;-51
2022/11/12 07:14:59;;;;;;;27.33;13.00;;;;;;;12.15;100.00;102938.97;4987111;28;20103;-49
2022/11/12 07:17:45;;;;;;;24.50;13.80;;;;;;;11.16;100.00;102939.56;4984967;28;20058;-49
2022/11/12 07:20:29;;;;;;;20.60;13.30;;;;;;;10.87;100.00;102945.88;4989286;28;20038;-53
2022/11/12 07:23:13;;;;;;;24.15;13.77;;;;;;;11.24;100.00;102941.50;4989020;28;20042;-50
2022/11/12 07:26:00;;;;;;;28.38;15.32;;;;;;;10.91;100.00;102949.09;4984130;28;20125;-53
2022/11/12 07:28:45;;;;;;;25.23;13.23;;;;;;;11.05;100.00;102945.94;4982375;28;20046;-51
2022/11/12 07:31:29;;;;;;;24.02;13.30;;;;;;;11.12;100.00;102948.88;4989598;28;20069;-53
2022/11/12 07:34:13;;;;;;;25.33;14.00;;;;;;;11.26;100.00;102946.72;4987299;28;20078;-53
2022/11/12 07:36:57;;;;;;;20.65;12.07;;;;;;;11.29;100.00;102943.75;4991446;28;20057;-54
2022/11/12 07:39:41;;;;;;;23.52;13.65;;;;;;;11.32;100.00;102943.44;4988010;28;20050;-49
2022/11/12 07:42:26;;;;;;;32.75;12.60;;;;;;;11.55;100.00;102941.22;4982327;28;20065;-53
2022/11/12 07:45:10;;;;;;;19.55;11.73;;;;;;;11.55;100.00;102937.69;4989291;28;20045;-51
2022/11/12 07:47:58;;;;;;;27.15;12.27;;;;;;;11.84;100.00;102944.69;4990521;28;20046;-51
2022/11/12 07:50:42;;;;;;;21.85;13.93;;;;;;;11.86;100.00;102950.72;4989124;28;20103;-53
2022/11/12 07:53:26;;;;;;;23.50;12.60;;;;;;;11.77;100.00;102956.00;4993225;28;20078;-53
2022/11/12 07:56:16;;;;;;;23.05;12.75;;;;;;;12.06;100.00;102956.84;4993337;28;20134;-51
2022/11/12 07:59:00;;;;;;;23.65;12.18;;;;;;;11.90;100.00;102963.69;4986331;28;20076;-46
2022/11/12 08:01:44;;;;;;;23.65;12.38;;;;;;;12.24;100.00;102966.72;4990380;28;20042;-51
2022/11/12 08:04:28;;;;;;;23.65;11.30;;;;;;;12.25;100.00;102965.72;4990056;28;20038;-53
2022/11/12 08:07:13;;;;;;;21.67;11.40;;;;;;;11.80;100.00;102973.66;4989458;28;20042;-53
2022/11/12 08:09:57;;;;;;;19.05;10.07;;;;;;;11.72;100.00;102966.34;4988474;28;20160;-51
2022/11/12 08:12:42;;;;;;;21.77;12.27;;;;;;;12.05;100.00;102966.72;4990779;28;20057;-49
2022/11/12 08:15:26;;;;;;;19.75;11.20;;;;;;;12.24;100.00;102978.28;4992708;28;20045;-52
2022/11/12 08:18:11;;;;;;;20.38;11.80;;;;;;;11.94;100.00;102979.47;4990892;28;20049;-51
2022/11/12 08:21:04;;;;;;;21.63;12.20;;;;;;;12.00;100.00;102977.03;4990588;28;20038;-54
2022/11/12 08:23:48;;;;;;;22.65;12.55;;;;;;;12.01;100.00;102985.97;4991490;28;20045;-53
2022/11/12 08:26:33;;;;;;;23.73;12.13;;;;;;;12.08;100.00;102987.03;4988536;28;20585;-52
2022/11/12 08:29:17;;;;;;;23.48;11.68;;;;;;;12.09;100.00;102988.72;4988094;28;20046;-49
2022/11/12 08:32:01;;;;;;;23.77;12.15;;;;;;;12.09;100.00;102987.84;4986368;28;20046;-49
2022/11/12 08:34:46;;;;;;;21.88;11.32;;;;;;;12.20;100.00;102990.31;4991804;28;20042;-52
2022/11/12 08:37:30;;;;;;;25.70;12.63;;;;;;;12.31;100.00;102975.84;4989514;28;20038;-51
2022/11/12 08:40:14;;;;;;;23.98;12.55;;;;;;;12.56;100.00;102979.53;4985364;28;20042;-50
2022/11/12 08:43:05;;;;;;;24.60;11.98;;;;;;;13.72;100.00;102968.59;4988988;28;20142;-53
2022/11/12 08:45:49;;;;;;;22.90;11.83;;;;;;;15.15;100.00;102986.22;4991440;28;20050;-50
2022/11/12 08:48:35;;;;;;;24.57;11.43;;;;;;;15.96;100.00;102993.28;4990632;28;20331;-53
2022/11/12 08:51:20;;;;;;;18.17;9.23;;;;;;;16.31;100.00;102990.16;4990420;28;20260;-53
2022/11/12 08:54:04;;;;;;;15.20;9.17;;;;;;;17.51;100.00;102994.84;4990354;28;20335;-52
2022/11/12 08:56:48;;;;;;;19.13;10.03;;;;;;;17.70;100.00;103001.50;4986801;28;20794;-53
2022/11/12 08:59:32;;;;;;;17.10;9.27;;;;;;;18.12;100.00;102991.78;4990923;28;20287;-52
2022/11/12 09:02:17;;;;;;;19.77;9.20;;;;;;;18.57;100.00;102988.84;4986720;28;20279;-53
2022/11/12 09:05:02;;;;;;;16.17;9.17;;;;;;;18.56;99.96;102997.97;4987374;28;20296;-51
2022/11/12 09:07:46;;;;;;;17.67;8.93;;;;;;;18.98;95.89;102997.22;4986204;28;20287;-50
2022/11/12 09:10:31;;;;;;;15.53;8.80;;;;;;;19.20;93.58;102988.00;4986032;28;20273;-50
2022/11/12 09:13:17;;;;;;;14.80;8.73;;;;;;;18.74;93.20;102989.38;4984567;28;20743;-49
2022/11/12 09:16:05;;;;;;;14.03;7.90;;;;;;;19.94;85.13;102994.75;4987103;28;20122;-51
2022/11/12 09:18:50;;;;;;;13.77;8.50;;;;;;;21.06;74.38;102999.50;4988644;28;20042;-51
2022/11/12 09:21:34;;;;;;;17.30;9.20;;;;;;;20.97;75.26;103001.63;4985340;28;20058;-52
2022/11/12 09:24:18;;;;;;;11.10;7.73;;;;;;;23.37;66.83;103005.78;4986151;28;20049;-50
2022/11/12 09:27:02;;;;;;;14.30;8.03;;;;;;;24.74;57.36;103013.34;4988313;28;20051;-49
2022/11/12 09:29:46;;;;;;;11.27;7.43;;;;;;;23.95;66.15;103007.09;4985667;28;20053;-50
2022/11/12 09:32:31;;;;;;;15.77;8.10;;;;;;;21.80;70.81;103010.13;4985309;28;20123;-51
2022/11/12 09:35:15;;;;;;;11.10;6.93;;;;;;;24.25;62.29;103016.34;4983956;28;20050;-54
2022/11/12 09:38:00;;;;;;;13.50;7.80;;;;;;;22.01;69.28;103016.28;4991905;28;20065;-50
2022/11/12 09:40:51;;;;;;;13.50;7.93;;;;;;;22.03;69.70;103008.72;4989577;28;20064;-50
2022/11/12 09:43:58;;;;;;;14.00;7.90;;;;;;;22.54;67.91;103016.94;4989216;28;20050;-51
2022/11/12 09:46:51;;;;;;;14.00;7.83;;;;;;;23.06;65.07;103017.44;4991787;28;20093;-54
2022/11/12 09:49:43;;;;;;;11.53;7.10;;;;;;;22.87;65.28;103010.34;4989769;28;20046;-55
2022/11/12 09:52:29;;;;;;;13.83;7.87;;;;;;;22.89;65.31;103019.94;4989982;28;20054;-50
2022/11/12 09:55:22;;;;;;;13.53;8.13;;;;;;;23.50;62.62;103022.00;4988806;28;20046;-53
2022/11/12 09:58:15;;;;;;;13.80;7.67;;;;;;;22.66;66.78;103020.59;4989258;28;20042;-52
2022/11/12 10:01:12;;;;;;;15.63;8.23;;;;;;;23.61;66.23;103017.66;4991959;28;20068;-52
2022/11/12 10:04:37;;;;;;;14.15;7.47;;;;;;;23.53;63.61;103015.25;4982903;28;20069;-51
2022/11/12 10:07:40;;;;;;;10.80;7.53;;;;;;;23.95;61.70;103022.63;4985051;28;20131;-51
2022/11/12 10:10:46;;;;;;;13.70;7.60;;;;;;;23.99;59.73;103018.38;4984903;28;20077;-53
2022/11/12 10:13:50;;;;;;;12.70;7.47;;;;;;;24.67;57.50;103024.41;4982920;28;20727;-52
2022/11/12 10:16:52;;;;;;;11.63;6.57;;;;;;;24.35;57.72;103019.31;4984531;28;20111;-54
2022/11/12 10:19:55;;;;;;;12.17;7.20;;;;;;;24.82;55.61;103020.41;4982348;28;20050;-55
2022/11/12 10:22:57;;;;;;;8.73;7.00;;;;;;;24.61;55.48;103012.53;4989986;28;20064;-54
2022/11/12 10:25:46;;;;;;;15.03;7.23;;;;;;;24.99;54.80;103013.13;4985959;28;20046;-54
2022/11/12 10:28:50;;;;;;;10.67;6.70;;;;;;;26.03;52.94;103001.41;4983906;28;20102;-55
2022/11/12 10:31:34;;;;;;;9.20;6.60;;;;;;;26.68;51.20;103001.88;4985716;28;21531;-55
2022/11/12 10:34:22;;;;;;;14.17;6.93;;;;;;;26.60;50.18;103005.88;4992246;28;20042;-50
2022/11/12 10:37:13;;;;;;;14.43;7.63;;;;;;;26.14;50.75;103013.38;4988072;28;20037;-49
2022/11/12 10:39:57;;;;;;;10.60;7.32;;;;;;;26.19;50.53;103013.50;4985892;28;20073;-51
2022/11/12 10:43:01;;;;;;;12.40;7.55;;;;;;;26.29;50.27;103013.66;4991149;28;20081;-54
2022/11/12 10:45:48;;;;;;;10.57;7.30;;;;;;;26.75;50.14;103002.53;4986815;28;20049;-53
2022/11/12 10:48:32;;;;;;;11.75;7.63;;;;;;;26.74;49.56;103008.28;4985565;28;20056;-51
2022/11/12 10:51:20;;;;;;;14.80;7.78;;;;;;;26.74;50.05;102997.31;4984142;28;20061;-50
2022/11/12 10:54:29;;;;;;;13.20;7.75;;;;;;;27.15;48.24;102997.00;4988607;28;20180;-53
2022/11/12 10:57:25;;;;;;;15.15;7.93;;;;;;;27.28;48.51;102991.16;4991930;28;20050;-52
2022/11/12 11:00:12;;;;;;;14.93;8.60;;;;;;;27.75;47.55;102981.47;4990412;28;20049;-54
2022/11/12 11:02:56;;;;;;;;;;;;;;;28.38;46.62;102985.56;4987389;28;20081;-54
2022/11/12 11:05:50;;;;;;;14.38;8.00;;;;;;;28.72;45.28;102982.44;4988631;28;20009;-53
2022/11/12 11:08:40;;;;;;;13.52;7.50;;;;;;;29.16;44.13;102986.75;4981193;28;20064;-50
2022/11/12 11:11:27;;;;;;;16.92;7.75;;;;;;;29.20;43.76;102981.53;4988147;28;20050;-51
2022/11/12 11:14:21;;;;;;;11.20;7.55;;;;;;;29.48;43.40;102980.25;4986198;28;20047;-51
2022/11/12 11:17:15;;;;;;;10.75;6.80;;;;;;;31.38;42.24;102982.06;4986176;28;20038;-55
2022/11/12 11:20:01;;;;;;;14.07;7.22;;;;;;;30.44;41.30;102978.84;4985053;28;20050;-53
2022/11/12 11:22:52;;;;;;;12.48;6.15;;;;;;;30.56;40.57;102977.72;4986254;28;20060;-53
2022/11/12 11:25:38;;;;;;;11.38;6.30;;;;;;;30.65;40.74;102987.09;4984952;28;20077;-52
2022/11/12 11:28:57;;;;;;;9.77;5.43;;;;;;;30.92;39.02;102983.13;4984404;28;20038;-53
2022/11/12 11:31:58;;;;;;;8.93;5.75;;;;;;;30.89;38.22;102983.69;4989324;28;20044;-51
2022/11/12 11:34:46;;;;;;;13.30;6.40;;;;;;;31.06;38.31;102980.59;4988575;28;20100;-55
2022/11/12 11:37:47;;;;;;;9.93;6.38;;;;;;;31.59;37.32;102979.16;4984687;28;20115;-52
2022/11/12 11:41:29;;;;;;;17.27;10.32;;;;;;;32.21;36.67;102975.88;4981032;28;20050;-51
2022/11/12 11:44:25;;;;;;;9.48;5.93;;;;;;;32.98;35.39;102970.56;5005026;28;20073;-51
2022/11/12 11:47:41;;;;;;;9.40;6.28;;;;;;;33.13;34.62;102973.13;4982894;28;20042;-54
2022/11/12 11:50:44;;;;;;;12.65;5.47;;;;;;;33.23;34.47;102969.38;4983572;28;20042;-55
2022/11/12 11:53:42;;;;;;;24.58;5.68;;;;;;;33.30;34.25;102961.50;4981519;28;20077;-53
2022/11/12 11:56:47;;;;;;;12.43;5.90;;;;;;;33.31;34.44;102968.69;4987323;28;20050;-53
2022/11/12 11:59:54;;;;;;;8.90;6.07;;;;;;;34.32;33.41;102970.31;4986939;28;20157;-54
2022/11/12 12:03:12;;;;;;;10.80;5.78;;;;;;;34.45;32.70;102972.28;4988185;28;20042;-50
2022/11/12 12:06:17;;;;;;;8.27;5.55;;;;;;;36.10;32.60;102955.69;4984349;28;20061;-50
2022/11/12 12:09:21;;;;;;;14.10;5.88;;;;;;;35.11;31.28;102953.72;4979426;28;20264;-49
2022/11/12 12:12:26;;;;;;;10.45;6.22;;;;;;;34.97;31.33;102951.75;4979409;28;20058;-50
2022/11/12 12:15:44;;;;;;;15.45;7.10;;;;;;;37.45;29.90;102946.84;4989492;28;20065;-53
2022/11/12 12:18:58;;;;;;;10.50;4.85;;;;;;;35.79;30.47;102945.38;4991856;28;20115;-48
2022/11/12 12:21:48;;;;;;;7.63;4.57;;;;;;;35.88;29.89;102937.06;4996613;28;20041;-55
2022/11/12 12:24:44;;;;;;;8.35;4.75;;;;;;;35.58;29.51;102933.94;4994030;28;20069;-54
2022/11/12 12:27:37;;;;;;;7.47;5.57;;;;;;;35.60;30.02;102938.03;4993452;28;20037;-56
2022/11/12 12:30:23;;;;;;;12.25;5.45;;;;;;;35.80;29.97;102935.03;4983824;28;20054;-54
2022/11/12 12:33:23;;;;;;;8.25;5.72;;;;;;;35.61;30.59;102919.38;4985859;28;20050;-55
2022/11/12 12:36:15;;;;;;;13.30;7.07;;;;;;;36.75;29.14;102924.53;4981304;28;20050;-53
2022/11/12 12:39:16;;;;;;;20.00;12.73;;;;;;;37.95;29.03;102918.63;4986267;28;20042;-52
2022/11/12 12:42:08;;;;;;;17.80;10.70;;;;;;;35.41;31.25;102904.84;4999573;28;20054;-49
2022/11/12 12:45:02;;;;;;;13.27;7.80;;;;;;;35.57;30.89;102894.19;4990628;28;20069;-54
2022/11/12 12:47:47;;;;;;;12.07;7.13;;;;;;;36.37;30.38;102900.06;4992811;28;20065;-54
2022/11/12 12:50:35;;;;;;;10.00;6.82;;;;;;;37.37;28.71;102899.44;4991065;28;20054;-55
2022/11/12 12:53:28;;;;;;;8.68;6.25;;;;;;;36.25;29.79;102887.56;4986521;28;20065;-53
2022/11/12 12:56:12;;;;;;;9.30;5.97;;;;;;;36.39;29.33;102875.50;4983722;28;20048;-51
2022/11/12 12:59:02;;;;;;;16.60;8.57;;;;;;;36.30;29.79;102886.63;4982633;28;20062;-56
2022/11/12 13:01:54;;;;;;;14.13;8.35;;;;;;;35.87;30.01;102883.34;4987841;28;20050;-55